Time;durP1;ratioP1;P1;durP2;ratioP2;P2;SDS_P1;SDS_P2;PMS_P1;PMS_P2;Temp;Humidity;BMP_temperature;BMP_pressure;BME280_temperature;BME280_humidity;BME280_pressure;Samples;Min_cycle;Max_cycle;Signal;HPM_P1;HPM_P2
2021/12/24 00:01:13;;;;;;;61.25;37.53;;;;;;;15.40;35.11;92462.78;4994123;28;20112;-88
2021/12/24 00:03:38;;;;;;;55.83;35.63;;;;;;;15.35;35.04;92464.34;5044024;28;20041;-89
2021/12/24 00:06:05;;;;;;;65.03;37.63;;;;;;;15.37;35.07;92472.00;5011281;28;20040;-88
2021/12/24 00:08:31;;;;;;;63.58;37.95;;;;;;;15.41;34.98;92464.25;4994676;28;20116;-88
2021/12/24 00:11:01;;;;;;;60.15;35.65;;;;;;;15.31;35.20;92469.31;4995072;28;20506;-90
2021/12/24 00:13:37;;;;;;;61.75;35.33;;;;;;;15.37;34.78;92464.53;4995398;28;20030;-87
2021/12/24 00:16:08;;;;;;;54.92;35.22;;;;;;;15.36;35.12;92473.97;5007830;28;20064;-88
2021/12/24 00:18:40;;;;;;;62.90;36.78;;;;;;;15.33;35.18;92469.56;4992215;28;20038;-89
2021/12/24 00:37:03;;;;;;;57.95;35.97;;;;;;;15.38;35.07;92451.66;5026764;28;20107;-87
2021/12/24 00:39:28;;;;;;;61.95;35.10;;;;;;;15.39;35.08;92455.84;5010369;28;20045;-88
2021/12/24 00:41:53;;;;;;;60.70;36.10;;;;;;;15.39;35.02;92450.41;4994425;28;20033;-88
2021/12/24 00:44:19;;;;;;;60.38;35.78;;;;;;;15.38;34.87;92443.47;5010034;28;20038;-89
2021/12/24 00:46:45;;;;;;;62.22;35.83;;;;;;;15.38;35.65;92454.38;5027565;28;20029;-88
2021/12/24 00:49:11;;;;;;;63.83;34.63;;;;;;;15.33;35.22;92464.09;5028907;28;20106;-88
2021/12/24 00:56:57;;;;;;;55.72;34.38;;;;;;;15.42;35.09;92454.81;5041851;28;20068;-87
2021/12/24 00:59:23;;;;;;;59.80;34.60;;;;;;;15.48;35.21;92452.03;5029409;28;20480;-88
2021/12/24 01:01:48;;;;;;;50.75;33.55;;;;;;;15.44;35.22;92444.16;5013997;28;20037;-87
2021/12/24 01:04:13;;;;;;;56.40;32.90;;;;;;;15.39;35.24;92459.31;5028781;28;20095;-88
2021/12/24 01:06:39;;;;;;;58.10;33.85;;;;;;;15.38;35.13;92443.47;5047900;28;20036;-88
2021/12/24 01:09:04;;;;;;;55.08;35.30;;;;;;;15.33;35.28;92434.16;5046428;28;20037;-88
2021/12/24 01:11:30;;;;;;;62.53;35.78;;;;;;;15.38;35.38;92443.47;5029605;28;20048;-88
2021/12/24 01:13:59;;;;;;;61.88;36.75;;;;;;;15.40;35.28;92443.72;5030190;28;20037;-89
2021/12/24 01:16:39;;;;;;;57.55;33.42;;;;;;;15.36;35.18;92437.84;5021298;28;20104;-88
2021/12/24 01:19:13;;;;;;;61.55;35.63;;;;;;;15.36;35.17;92432.41;4988635;28;20069;-88
2021/12/24 01:24:13;;;;;;;53.97;33.75;;;;;;;15.41;35.37;92409.78;5005412;28;20074;-88
2021/12/24 01:26:56;;;;;;;58.58;35.25;;;;;;;15.46;35.50;92413.69;5021057;28;20038;-87
2021/12/24 01:42:46;;;;;;;63.72;34.72;;;;;;;15.41;35.24;92398.88;4972481;28;20077;-89
2021/12/24 01:45:27;;;;;;;61.17;34.70;;;;;;;15.41;35.27;92394.19;4976156;28;20076;-88
2021/12/24 01:47:53;;;;;;;;;;;;;;;15.38;35.19;92384.31;5020295;28;20116;-87
2021/12/24 01:50:19;;;;;;;60.08;34.85;;;;;;;15.37;35.47;92391.00;5030737;28;20579;-87
2021/12/24 01:52:45;;;;;;;58.75;32.17;;;;;;;15.38;35.37;92383.56;5010585;28;20116;-87
2021/12/24 01:55:10;;;;;;;58.72;32.28;;;;;;;15.42;35.50;92386.75;5010027;28;20089;-89
2021/12/24 01:57:36;;;;;;;56.15;33.78;;;;;;;15.38;35.54;92381.59;5009670;28;20489;-88
2021/12/24 02:00:04;;;;;;;58.10;34.05;;;;;;;15.38;35.58;92376.16;5009520;28;20063;-87
2021/12/24 02:02:30;;;;;;;54.20;32.95;;;;;;;15.37;35.69;92371.94;5000981;28;20596;-89
2021/12/24 02:04:55;;;;;;;54.33;34.15;;;;;;;15.41;35.51;92364.22;4994450;28;20161;-90
2021/12/24 02:07:21;;;;;;;59.38;32.92;;;;;;;15.37;35.65;92338.56;5032935;28;20326;-88
2021/12/24 02:09:46;;;;;;;57.42;32.80;;;;;;;15.38;35.71;92323.66;5019993;28;20195;-87
2021/12/24 02:12:14;;;;;;;52.80;33.03;;;;;;;15.39;35.37;92320.44;5016759;28;20042;-87
2021/12/24 02:14:40;;;;;;;50.40;32.83;;;;;;;15.37;35.26;92328.38;5031982;28;20048;-89
2021/12/24 02:17:26;;;;;;;55.50;32.80;;;;;;;15.44;35.97;92321.59;5029516;28;20073;-87
2021/12/24 02:28:18;;;;;;;55.63;32.47;;;;;;;15.46;35.46;92331.97;5049447;28;20523;-86
2021/12/24 02:28:21;;;;;;;53.60;31.85;;;;;;;15.44;35.37;92335.97;5017035;28;20403;-87
2021/12/24 02:30:46;;;;;;;49.33;31.15;;;;;;;15.41;35.34;92337.00;4995890;28;20084;-87
2021/12/24 02:33:12;;;;;;;55.25;31.55;;;;;;;15.40;35.53;92342.94;4994927;28;20042;-89
2021/12/24 02:35:37;;;;;;;59.13;32.47;;;;;;;15.40;35.49;92343.69;5013263;28;20037;-88
2021/12/24 02:38:03;;;;;;;53.08;32.72;;;;;;;15.45;35.47;92339.41;5012829;28;20065;-87
2021/12/24 02:40:28;;;;;;;55.80;32.00;;;;;;;15.42;35.62;92338.47;4995953;28;20058;-88
2021/12/24 02:42:56;;;;;;;56.17;32.45;;;;;;;15.40;35.59;92343.69;4993496;28;20038;-87
2021/12/24 02:45:22;;;;;;;51.88;30.80;;;;;;;15.33;35.76;92336.13;4996169;28;20059;-88
2021/12/24 02:55:55;;;;;;;50.58;32.20;;;;;;;15.45;35.77;92344.88;5049956;28;20465;-89
2021/12/24 02:58:21;;;;;;;50.47;29.25;;;;;;;15.41;35.51;92347.88;5048276;28;20025;-86
2021/12/24 03:00:47;;;;;;;52.72;32.20;;;;;;;15.40;35.68;92349.13;5028440;28;20044;-89
2021/12/24 03:03:15;;;;;;;55.17;31.08;;;;;;;15.38;35.70;92343.47;5040398;28;20087;-87
2021/12/24 03:05:40;;;;;;;52.33;30.10;;;;;;;15.36;35.75;92331.66;5048581;28;20045;-88
2021/12/24 03:08:05;;;;;;;57.22;32.95;;;;;;;15.39;35.62;92327.88;5048595;28;20037;-88
2021/12/24 03:10:31;;;;;;;52.70;30.27;;;;;;;15.40;35.49;92304.81;5048743;28;20037;-87
2021/12/24 03:12:56;;;;;;;54.13;33.17;;;;;;;15.35;35.70;92311.84;5048751;28;20036;-87
2021/12/24 03:15:24;;;;;;;46.30;29.13;;;;;;;15.34;35.70;92315.81;5047483;28;20054;-87
2021/12/24 03:17:53;;;;;;;52.55;32.20;;;;;;;15.39;35.71;92320.44;5032495;28;20043;-88
2021/12/24 03:20:19;;;;;;;53.45;32.72;;;;;;;15.44;36.13;92321.59;5015591;28;20510;-88
2021/12/24 03:25:29;;;;;;;48.92;30.98;;;;;;;15.36;36.07;92321.50;5047239;28;20048;-87
2021/12/24 03:27:55;;;;;;;44.78;30.42;;;;;;;15.38;35.77;92310.06;5015127;28;20036;-87
2021/12/24 03:30:20;;;;;;;51.42;31.40;;;;;;;15.32;36.33;92315.59;5031455;28;20063;-87
2021/12/24 03:32:45;;;;;;;45.60;30.52;;;;;;;15.33;36.12;92308.91;5016868;28;20472;-88
2021/12/24 03:35:11;;;;;;;44.55;30.58;;;;;;;15.35;36.00;92311.09;5011573;28;20080;-88
2021/12/24 03:37:36;;;;;;;51.25;31.35;;;;;;;15.38;36.03;92312.78;4995917;28;20034;-87
2021/12/24 03:40:03;;;;;;;51.90;30.77;;;;;;;15.38;35.98;92307.31;5003901;28;20040;-88
2021/12/24 03:42:28;;;;;;;47.35;30.00;;;;;;;15.40;35.98;92304.81;5047540;28;20065;-87
2021/12/24 03:45:04;;;;;;;54.25;31.02;;;;;;;15.35;35.91;92302.94;5048031;28;20044;-90
2021/12/24 03:47:35;;;;;;;49.53;30.58;;;;;;;15.40;35.74;92291.94;5030779;28;20029;-87
2021/12/24 03:50:06;;;;;;;;;;;;;;;15.36;36.04;92291.53;5048620;28;20041;-87
2021/12/24 03:54:58;;;;;;;46.55;29.98;;;;;;;15.36;36.04;92290.78;5048303;28;20052;-88
2021/12/24 03:57:31;;;;;;;45.35;29.02;;;;;;;15.37;35.97;92292.97;5047795;28;20033;-88
2021/12/24 03:59:58;;;;;;;50.88;30.80;;;;;;;15.42;36.14;92296.88;5038921;28;20120;-88
2021/12/24 04:02:23;;;;;;;48.33;30.33;;;;;;;15.42;35.96;92296.88;5033789;28;20041;-89
2021/12/24 04:04:49;;;;;;;48.10;29.75;;;;;;;15.37;36.07;92298.44;5027200;28;20041;-88
2021/12/24 04:07:15;;;;;;;51.45;30.23;;;;;;;15.37;36.29;92292.97;5027085;28;20115;-91
2021/12/24 04:09:49;;;;;;;49.67;29.40;;;;;;;15.32;36.57;92296.53;5027577;28;20522;-88
2021/12/24 04:12:15;;;;;;;52.85;30.83;;;;;;;15.38;36.11;92286.28;5011889;28;20252;-90
2021/12/24 04:14:40;;;;;;;51.55;30.33;;;;;;;15.39;36.31;92289.75;5011401;28;20041;-88
2021/12/24 04:17:07;;;;;;;44.00;28.23;;;;;;;15.36;36.19;92299.69;5021689;28;20123;-88
2021/12/24 04:25:01;;;;;;;47.88;29.45;;;;;;;15.41;35.98;92304.31;5014305;28;20078;-88
2021/12/24 04:27:28;;;;;;;50.50;30.40;;;;;;;15.40;36.22;92300.13;5027193;28;20040;-88
2021/12/24 04:30:01;;;;;;;47.00;31.15;;;;;;;15.41;36.28;92295.41;5031028;28;20128;-88
2021/12/24 04:32:36;;;;;;;45.00;28.70;;;;;;;15.38;36.05;92301.88;5033984;28;20493;-89
2021/12/24 04:35:17;;;;;;;47.13;29.38;;;;;;;15.36;36.12;92305.16;4995776;28;20508;-88
2021/12/24 04:51:19;;;;;;;48.80;28.38;;;;;;;15.44;36.41;92311.44;5046971;28;20099;-88
2021/12/24 05:02:17;;;;;;;45.42;27.77;;;;;;;15.43;36.41;92284.72;5025494;28;20039;-89
2021/12/24 05:04:50;;;;;;;44.15;28.75;;;;;;;15.34;36.43;92282.41;5054359;28;20037;-89
2021/12/24 05:07:46;;;;;;;48.60;27.92;;;;;;;15.34;36.54;92285.88;5029350;28;20146;-88
2021/12/24 05:10:06;;;;;;;42.45;27.42;;;;;;;15.37;36.56;92281.38;5046297;28;20037;-88
2021/12/24 05:12:34;;;;;;;43.47;27.80;;;;;;;15.36;36.18;92296.97;5029654;28;20037;-87
2021/12/24 05:15:00;;;;;;;43.30;28.40;;;;;;;15.31;36.36;92288.88;5047052;28;20041;-88
2021/12/24 05:17:34;;;;;;;49.03;29.90;;;;;;;15.35;36.52;92283.88;5029353;28;20444;-88
2021/12/24 05:22:43;;;;;;;47.78;28.27;;;;;;;15.34;36.63;92274.25;5038728;28;20048;-88
2021/12/24 05:25:08;;;;;;;47.90;26.88;;;;;;;15.41;36.61;92282.53;5036109;28;20036;-88
2021/12/24 05:27:34;;;;;;;44.42;28.52;;;;;;;15.38;36.58;92274.66;5002603;28;20048;-89
2021/12/24 05:30:00;;;;;;;44.75;28.15;;;;;;;15.37;36.50;92273.22;5034436;28;20048;-88
2021/12/24 05:32:25;;;;;;;45.92;29.10;;;;;;;15.33;36.66;92270.03;5048325;28;20036;-89
2021/12/24 05:34:51;;;;;;;53.03;29.67;;;;;;;15.41;36.79;92270.91;5040165;28;20411;-89
2021/12/24 05:37:16;;;;;;;48.05;29.90;;;;;;;15.28;36.55;92271.59;5073120;28;20033;-88
2021/12/24 05:39:42;;;;;;;43.67;26.80;;;;;;;15.30;36.76;92268.34;5057062;28;20037;-89
2021/12/24 05:42:07;;;;;;;42.78;27.63;;;;;;;15.38;36.67;92271.94;5055742;28;20029;-89
2021/12/24 05:44:33;;;;;;;41.80;28.30;;;;;;;15.34;36.59;92271.50;5053180;28;20040;-89
2021/12/24 05:46:59;;;;;;;40.15;25.58;;;;;;;15.34;36.55;92264.09;5036245;28;20272;-90
2021/12/24 05:49:25;;;;;;;45.17;28.83;;;;;;;15.37;37.14;92271.19;5002620;28;20111;-89
2021/12/24 05:51:50;;;;;;;46.13;29.38;;;;;;;15.31;36.55;92267.84;5013692;28;20289;-88
2021/12/24 05:54:16;;;;;;;45.75;26.77;;;;;;;15.32;36.68;92271.31;5012208;28;20034;-88
2021/12/24 05:56:42;;;;;;;50.63;27.30;;;;;;;15.37;36.98;92262.31;5013433;28;20042;-88
2021/12/24 05:59:07;;;;;;;47.83;29.98;;;;;;;15.33;37.03;92267.31;4998950;28;20033;-88
2021/12/24 06:01:33;;;;;;;41.95;27.73;;;;;;;15.33;36.52;92268.06;5000324;28;20037;-89
2021/12/24 06:03:58;;;;;;;42.35;26.27;;;;;;;15.36;36.57;92260.84;5016873;28;20038;-88
2021/12/24 06:06:24;;;;;;;47.63;28.40;;;;;;;15.37;36.59;92268.47;5026891;28;20030;-89
2021/12/24 06:08:49;;;;;;;45.53;28.05;;;;;;;15.35;36.68;92260.13;5015447;28;20038;-89
2021/12/24 06:11:14;;;;;;;43.15;26.52;;;;;;;15.33;36.89;92270.03;5030842;28;20033;-90
2021/12/24 06:13:40;;;;;;;45.63;28.52;;;;;;;15.37;36.97;92256.88;4991030;28;20044;-88
2021/12/24 06:16:07;;;;;;;43.88;25.65;;;;;;;15.37;36.99;92265.03;5015802;28;20045;-89
2021/12/24 06:18:32;;;;;;;45.67;27.95;;;;;;;15.41;36.56;92268.91;5030584;28;20041;-88
2021/12/24 06:21:00;;;;;;;43.55;27.00;;;;;;;15.37;36.72;92270.47;5032715;28;20052;-88
2021/12/24 06:23:27;;;;;;;42.10;27.42;;;;;;;15.34;36.71;92266.81;5032560;28;20251;-88
2021/12/24 06:25:53;;;;;;;41.67;26.33;;;;;;;15.35;36.97;92265.56;5016723;28;20172;-88
2021/12/24 06:28:19;;;;;;;41.53;26.75;;;;;;;15.33;36.81;92270.78;5032333;28;20030;-88
2021/12/24 06:30:45;;;;;;;44.33;26.92;;;;;;;15.31;37.01;92261.66;4999797;28;20080;-87
2021/12/24 06:33:10;;;;;;;41.92;26.83;;;;;;;15.34;36.93;92263.34;5009954;28;20394;-88
2021/12/24 06:35:36;;;;;;;41.30;26.70;;;;;;;15.30;36.89;92263.66;4977265;28;20038;-88
2021/12/24 06:38:01;;;;;;;44.55;28.08;;;;;;;15.30;37.23;92268.34;4993766;28;20409;-88
2021/12/24 06:40:27;;;;;;;39.90;26.83;;;;;;;15.29;37.03;92273.06;4976884;28;20040;-91
2021/12/24 06:42:52;;;;;;;40.33;26.65;;;;;;;15.30;36.75;92273.81;4995918;28;20048;-88
2021/12/24 06:45:22;;;;;;;41.15;27.00;;;;;;;15.29;37.11;92272.34;5012347;28;20052;-88
2021/12/24 06:47:48;;;;;;;42.05;26.92;;;;;;;15.36;36.98;92274.47;5013632;28;20029;-88
2021/12/24 06:50:13;;;;;;;43.30;26.25;;;;;;;15.32;37.28;92282.19;5015477;28;20037;-90
2021/12/24 06:52:38;;;;;;;43.58;26.90;;;;;;;15.34;37.09;92282.41;4999336;28;20029;-88
2021/12/24 06:55:04;;;;;;;38.90;25.52;;;;;;;15.36;36.92;92288.81;4999188;28;20048;-88
2021/12/24 06:57:30;;;;;;;44.40;27.35;;;;;;;15.39;37.19;92282.31;5015839;28;20415;-88
2021/12/24 06:59:55;;;;;;;45.40;28.88;;;;;;;15.31;37.06;92292.34;5009245;28;20032;-90
2021/12/24 07:02:20;;;;;;;42.75;27.00;;;;;;;15.38;36.97;92296.44;5049204;28;20053;-88
2021/12/24 07:04:46;;;;;;;39.65;25.67;;;;;;;15.33;37.06;92295.28;5012250;28;20416;-88
2021/12/24 07:07:11;;;;;;;42.63;25.55;;;;;;;15.35;37.24;92292.78;5044921;28;20045;-88
2021/12/24 07:09:42;;;;;;;40.42;26.38;;;;;;;15.35;37.12;92300.94;5045917;28;20342;-89
2021/12/24 07:12:10;;;;;;;42.45;25.30;;;;;;;15.35;37.37;92303.69;5044586;28;20053;-88
2021/12/24 07:14:37;;;;;;;37.33;24.25;;;;;;;15.36;37.38;92296.97;5030567;28;20042;-88
2021/12/24 07:17:03;;;;;;;35.25;23.90;;;;;;;15.35;37.17;92297.50;5028024;28;20297;-88
2021/12/24 07:19:28;;;;;;;43.00;27.63;;;;;;;15.39;37.32;92306.81;5045394;28;20044;-89
2021/12/24 07:21:54;;;;;;;40.95;27.77;;;;;;;15.42;37.52;92297.59;5028801;28;20462;-89
2021/12/24 07:24:19;;;;;;;38.60;26.13;;;;;;;15.40;37.35;92305.56;5045075;28;20038;-89
2021/12/24 07:26:44;;;;;;;38.15;26.33;;;;;;;15.37;37.25;92303.16;5044639;28;20048;-89
2021/12/24 07:29:10;;;;;;;44.40;28.30;;;;;;;15.38;37.23;92294.44;5047280;28;20037;-89
2021/12/24 07:31:35;;;;;;;40.35;25.58;;;;;;;15.35;37.24;92292.78;5034133;28;20029;-91
2021/12/24 07:34:01;;;;;;;41.50;27.17;;;;;;;15.35;37.32;92295.50;5049240;28;20045;-89
2021/12/24 07:36:26;;;;;;;47.22;29.63;;;;;;;15.30;37.37;92290.88;5064660;28;20044;-89
2021/12/24 07:38:51;;;;;;;38.75;25.40;;;;;;;15.35;37.05;92292.78;5048356;28;20044;-89
2021/12/24 07:41:18;;;;;;;41.80;25.63;;;;;;;15.36;37.46;92298.97;5045128;28;20043;-88
2021/12/24 07:43:43;;;;;;;37.30;24.83;;;;;;;15.38;37.52;92291.00;5028707;28;20033;-90
2021/12/24 07:46:09;;;;;;;37.42;24.35;;;;;;;15.35;37.28;92292.06;5044059;28;20503;-88
2021/12/24 07:48:43;;;;;;;40.22;25.08;;;;;;;15.41;37.30;92292.69;5038238;28;20042;-90
2021/12/24 07:53:34;;;;;;;37.00;23.33;;;;;;;15.34;37.35;92277.69;5025387;28;20042;-89
2021/12/24 07:55:59;;;;;;;40.88;27.27;;;;;;;15.37;37.03;92284.09;5009098;28;20034;-89
2021/12/24 07:58:25;;;;;;;41.20;27.38;;;;;;;15.30;37.58;92277.25;4975617;28;20448;-89
2021/12/24 08:00:51;;;;;;;40.53;25.40;;;;;;;15.38;37.37;92278.09;5025375;28;20041;-89
2021/12/24 08:03:16;;;;;;;39.97;26.23;;;;;;;15.34;37.26;92276.97;5027305;28;20034;-90
2021/12/24 08:05:42;;;;;;;38.33;24.77;;;;;;;15.36;37.46;92282.63;4996808;28;20033;-90
2021/12/24 08:08:08;;;;;;;36.97;24.42;;;;;;;15.35;37.46;92294.78;5028295;28;20056;-89
2021/12/24 08:10:34;;;;;;;42.00;25.67;;;;;;;15.30;37.72;92282.72;5011852;28;20041;-89
2021/12/24 08:13:03;;;;;;;35.20;23.67;;;;;;;15.36;37.74;92269.00;5012052;28;20428;-89
2021/12/24 08:15:28;;;;;;;42.72;27.08;;;;;;;15.42;38.23;92277.81;5012067;28;20128;-89
2021/12/24 08:17:54;;;;;;;40.03;24.65;;;;;;;15.31;37.54;92264.38;5028699;28;20124;-89
2021/12/24 08:20:23;;;;;;;38.80;24.13;;;;;;;15.30;37.69;92257.47;5028776;28;20400;-89
2021/12/24 08:22:54;;;;;;;41.88;26.17;;;;;;;15.28;37.89;92277.03;5029626;28;20060;-90
2021/12/24 08:25:19;;;;;;;47.50;30.23;;;;;;;15.37;38.79;92282.09;5012753;28;20076;-89
2021/12/24 08:27:45;;;;;;;41.45;26.13;;;;;;;15.30;37.83;92277.25;5010445;28;20039;-89
2021/12/24 08:30:10;;;;;;;39.80;24.52;;;;;;;15.30;37.56;92282.72;5005594;28;20037;-90
2021/12/24 08:32:39;;;;;;;39.05;25.02;;;;;;;15.35;38.32;92281.16;5043044;28;20048;-89
2021/12/24 08:35:06;;;;;;;39.08;24.08;;;;;;;15.31;37.61;92278.72;5032926;28;20182;-89
2021/12/24 08:37:32;;;;;;;41.03;25.15;;;;;;;15.28;37.86;92274.31;5033003;28;20068;-91
2021/12/24 08:39:58;;;;;;;42.08;26.25;;;;;;;15.37;37.59;92267.75;5032974;28;20085;-92
2021/12/24 08:42:24;;;;;;;43.55;25.00;;;;;;;15.31;37.77;92272.56;5023381;28;20401;-89
2021/12/24 08:44:51;;;;;;;41.83;25.20;;;;;;;15.28;37.65;92266.16;5013448;28;20057;-90
2021/12/24 08:47:16;;;;;;;41.30;26.48;;;;;;;15.27;37.71;92263.94;5025734;28;20363;-89
2021/12/24 08:49:42;;;;;;;35.47;24.25;;;;;;;15.32;38.03;92268.56;5021153;28;20037;-89
2021/12/24 08:52:07;;;;;;;39.33;26.85;;;;;;;15.41;38.25;92282.53;5029416;28;20040;-89
2021/12/24 08:54:33;;;;;;;40.97;24.88;;;;;;;15.33;37.76;92284.41;5038226;28;20033;-90
2021/12/24 08:56:58;;;;;;;42.05;25.17;;;;;;;15.38;37.70;92278.09;5017378;28;20403;-91
2021/12/24 08:59:24;;;;;;;24.92;18.08;;;;;;;15.23;38.94;92279.84;5021048;28;20029;-89
2021/12/24 09:01:51;;;;;;;24.23;16.80;;;;;;;15.22;38.82;92283.81;5031483;28;20094;-90
2021/12/24 09:04:16;;;;;;;31.70;21.95;;;;;;;15.20;38.46;92289.03;5017337;28;20053;-90
2021/12/24 09:06:42;;;;;;;31.98;20.85;;;;;;;15.23;38.59;92291.47;5020859;28;20404;-90
2021/12/24 09:09:07;;;;;;;35.22;22.85;;;;;;;15.29;38.62;92296.84;5020970;28;20064;-89
2021/12/24 09:11:34;;;;;;;30.25;20.25;;;;;;;15.24;38.27;92292.94;4999976;28;20052;-91
2021/12/24 09:14:00;;;;;;;36.78;23.20;;;;;;;15.30;38.46;92285.44;5012652;28;20588;-90
2021/12/24 09:16:27;;;;;;;36.22;23.10;;;;;;;15.25;38.25;92288.22;4995561;28;20038;-90
2021/12/24 09:19:02;;;;;;;40.83;25.75;;;;;;;15.33;38.82;92278.94;5011960;28;20037;-90
2021/12/24 09:21:28;;;;;;;34.28;22.30;;;;;;;15.35;38.23;92276.44;5037300;28;20041;-89
2021/12/24 09:23:54;;;;;;;34.78;22.13;;;;;;;15.31;38.36;92273.28;5048972;28;20033;-90
2021/12/24 09:26:27;;;;;;;32.15;20.75;;;;;;;15.34;38.28;92271.50;5023288;28;20518;-89
2021/12/24 09:28:54;;;;;;;40.10;22.98;;;;;;;15.39;38.87;92270.69;5013249;28;20049;-89
2021/12/24 09:31:19;;;;;;;34.00;22.25;;;;;;;15.33;38.43;92259.88;5001551;28;20037;-91
2021/12/24 09:33:44;;;;;;;33.67;22.33;;;;;;;15.34;38.43;92257.91;5032249;28;20047;-89
2021/12/24 09:36:11;;;;;;;30.85;21.60;;;;;;;15.35;38.29;92248.47;5026444;28;20045;-92
2021/12/24 09:38:36;;;;;;;35.22;22.58;;;;;;;15.34;38.46;92252.47;5036200;28;20033;-89
2021/12/24 09:41:02;;;;;;;34.97;22.83;;;;;;;15.35;39.00;92254.66;5030764;28;20041;-89
2021/12/24 09:43:27;;;;;;;31.17;20.42;;;;;;;15.34;38.49;92266.06;5027520;28;20049;-91
2021/12/24 09:45:53;;;;;;;32.92;22.05;;;;;;;15.38;38.66;92252.88;4993187;28;20030;-90
2021/12/24 09:48:18;;;;;;;31.95;20.33;;;;;;;15.35;38.52;92251.94;5041836;28;20053;-91
2021/12/24 09:50:45;;;;;;;36.63;23.48;;;;;;;15.28;38.73;92249.81;5026971;28;20116;-91
2021/12/24 09:53:11;;;;;;;33.35;22.33;;;;;;;15.28;38.78;92249.09;5026880;28;20052;-91
2021/12/24 09:55:36;;;;;;;34.33;22.23;;;;;;;15.30;38.57;92254.75;5039706;28;20396;-91
2021/12/24 09:58:02;;;;;;;30.00;21.52;;;;;;;15.29;38.79;92248.56;5006961;28;20042;-89
2021/12/24 10:00:27;;;;;;;36.90;24.30;;;;;;;15.27;38.72;92236.72;5000344;28;20238;-91
2021/12/24 10:02:55;;;;;;;34.83;22.08;;;;;;;15.28;38.76;92240.91;5004919;28;20033;-92
2021/12/24 10:05:41;;;;;;;36.58;23.67;;;;;;;15.29;38.79;92242.38;5009390;28;20530;-90
2021/12/24 10:08:17;;;;;;;39.58;24.98;;;;;;;15.26;38.66;92230.53;5020633;28;20467;-90
2021/12/24 10:10:44;;;;;;;40.15;25.20;;;;;;;15.33;39.90;92234.66;5025453;28;20026;-91
2021/12/24 10:13:37;;;;;;;43.33;26.17;;;;;;;15.34;39.35;92238.84;5042836;28;20149;-90
2021/12/24 10:16:18;;;;;;;38.15;22.90;;;;;;;15.28;38.99;92240.91;5046176;28;20026;-89
2021/12/24 10:18:51;;;;;;;40.38;24.05;;;;;;;15.29;38.80;92236.94;5046174;28;20041;-90
2021/12/24 10:21:24;;;;;;;42.72;26.45;;;;;;;15.31;38.77;92226.25;5046233;28;20122;-92
2021/12/24 10:23:51;;;;;;;36.97;23.58;;;;;;;15.32;39.07;92233.91;5047150;28;20544;-90
2021/12/24 10:26:21;;;;;;;33.88;24.13;;;;;;;15.30;38.79;92219.34;5026509;28;20497;-91
2021/12/24 10:28:53;;;;;;;32.55;19.85;;;;;;;15.33;39.04;92224.50;5026348;28;20041;-90
2021/12/24 10:31:26;;;;;;;37.40;23.25;;;;;;;15.33;38.96;92218.31;5015877;28;20038;-90
2021/12/24 10:34:14;;;;;;;41.28;23.88;;;;;;;15.33;39.08;92224.50;4995198;28;20034;-92
2021/12/24 10:36:49;;;;;;;34.53;23.27;;;;;;;15.28;38.97;92225.31;4995572;28;20061;-90
2021/12/24 10:39:14;;;;;;;31.15;20.42;;;;;;;15.23;39.03;92220.69;5011406;28;20037;-90
2021/12/24 10:41:43;;;;;;;33.38;21.33;;;;;;;15.32;39.01;92220.31;4977808;28;20044;-91
2021/12/24 10:44:26;;;;;;;29.23;19.38;;;;;;;15.31;38.59;92218.84;5008558;28;20056;-91
2021/12/24 10:47:02;;;;;;;37.58;23.60;;;;;;;15.35;38.94;92234.88;5023741;28;20052;-91
2021/12/24 10:52:16;;;;;;;34.58;22.92;;;;;;;15.38;39.27;92222.91;5009991;28;20056;-90
2021/12/24 10:54:55;;;;;;;31.48;21.98;;;;;;;15.36;39.04;92209.13;5013370;28;20040;-91
2021/12/24 10:57:23;;;;;;;40.28;23.90;;;;;;;15.36;39.02;92220.75;5012952;28;20033;-91
2021/12/24 10:59:49;;;;;;;37.85;25.20;;;;;;;15.28;38.92;92224.56;5009593;28;20053;-91
2021/12/24 11:02:14;;;;;;;31.45;20.75;;;;;;;15.34;38.82;92225.97;4985202;28;20527;-90
2021/12/24 11:04:40;;;;;;;35.22;22.05;;;;;;;15.34;38.87;92211.63;5013340;28;20041;-90
2021/12/24 11:07:29;;;;;;;35.72;22.95;;;;;;;15.38;39.00;92207.31;5008711;28;20038;-91
2021/12/24 11:10:05;;;;;;;35.47;22.30;;;;;;;15.34;39.00;92215.06;4993264;28;20125;-91
2021/12/24 11:12:34;;;;;;;31.42;20.30;;;;;;;15.35;38.79;92213.09;5009386;28;20055;-91
2021/12/24 11:15:00;;;;;;;34.20;22.77;;;;;;;15.42;39.45;92215.19;4992944;28;20033;-90
2021/12/24 11:17:38;;;;;;;33.03;20.42;;;;;;;15.40;39.33;92223.13;4976804;28;20540;-90
2021/12/24 11:20:09;;;;;;;27.05;18.45;;;;;;;15.37;38.87;92218.75;5024216;28;20034;-90
2021/12/24 11:22:49;;;;;;;33.25;20.77;;;;;;;15.40;39.10;92217.69;5009584;28;20053;-90
2021/12/24 11:25:14;;;;;;;31.43;20.27;;;;;;;15.34;39.02;92225.97;4960739;28;20045;-89
2021/12/24 11:27:40;;;;;;;32.10;20.67;;;;;;;15.35;39.34;92215.81;4995096;28;20408;-92
2021/12/24 11:30:06;;;;;;;26.27;18.63;;;;;;;15.35;38.88;92204.91;5028488;28;20037;-91
2021/12/24 11:32:31;;;;;;;33.20;23.05;;;;;;;15.27;38.94;92204.78;5021285;28;20037;-90
2021/12/24 11:34:57;;;;;;;28.40;18.70;;;;;;;15.31;39.12;92202.50;5012606;28;20200;-90
2021/12/24 11:37:22;;;;;;;31.45;19.52;;;;;;;15.33;39.14;92202.72;5028559;28;20038;-91
2021/12/24 11:39:48;;;;;;;35.63;18.95;;;;;;;15.33;38.82;92205.44;5028895;28;20128;-91
2021/12/24 11:42:13;;;;;;;31.98;20.83;;;;;;;15.33;39.20;92207.44;5027795;28;20042;-92
2021/12/24 11:44:39;;;;;;;28.30;18.73;;;;;;;15.35;38.82;92204.91;5015380;28;20042;-90
2021/12/24 11:47:05;;;;;;;31.58;20.40;;;;;;;15.32;39.12;92206.69;5011422;28;20037;-90
2021/12/24 11:49:31;;;;;;;27.38;19.05;;;;;;;15.33;39.10;92205.44;5011806;28;20479;-90
2021/12/24 11:51:56;;;;;;;29.02;18.80;;;;;;;15.40;39.39;92199.34;5029134;28;20037;-91
2021/12/24 11:54:22;;;;;;;33.20;20.35;;;;;;;15.37;38.92;92199.69;5011576;28;20448;-91
2021/12/24 11:56:50;;;;;;;29.73;18.95;;;;;;;15.40;39.34;92196.63;5008204;28;20041;-91
2021/12/24 11:59:16;;;;;;;29.40;19.00;;;;;;;15.39;39.24;92197.16;5031518;28;20116;-90
2021/12/24 12:01:42;;;;;;;352.15;265.88;;;;;;;15.35;39.23;92196.75;5009145;28;20096;-92
2021/12/24 12:04:12;;;;;;;37.40;24.30;;;;;;;15.35;38.94;92200.22;4994498;28;20048;-92
2021/12/24 12:06:38;;;;;;;31.80;19.85;;;;;;;15.37;39.17;92192.22;5009160;28;20064;-90
2021/12/24 12:09:06;;;;;;;30.23;19.75;;;;;;;15.37;39.25;92184.06;4993033;28;20037;-89
2021/12/24 12:11:32;;;;;;;28.05;20.40;;;;;;;15.31;39.18;92191.59;5027848;28;20030;-90
2021/12/24 12:14:10;;;;;;;31.60;20.42;;;;;;;15.36;38.98;92188.06;5028913;28;20507;-91
2021/12/24 12:16:38;;;;;;;30.73;20.77;;;;;;;15.38;38.93;92190.25;5029096;28;20440;-91
2021/12/24 12:19:12;;;;;;;32.67;21.05;;;;;;;15.37;38.92;92177.91;5028161;28;20114;-91
2021/12/24 12:21:41;;;;;;;28.05;19.08;;;;;;;15.32;39.23;92173.28;4979872;28;20527;-91
2021/12/24 12:26:46;;;;;;;26.63;18.88;;;;;;;15.34;39.10;92179.69;5012361;28;20034;-91
2021/12/24 12:29:22;;;;;;;29.30;19.75;;;;;;;15.37;39.59;92180.63;5027371;28;20057;-90
2021/12/24 12:31:50;;;;;;;29.35;19.90;;;;;;;15.42;39.58;92171.59;4993389;28;20060;-90
2021/12/24 12:34:41;;;;;;;26.08;18.95;;;;;;;15.35;39.30;92169.53;4994568;28;20060;-91
2021/12/24 12:37:15;;;;;;;29.23;19.48;;;;;;;15.40;39.26;92160.50;5028352;28;20140;-91
2021/12/24 12:39:40;;;;;;;27.50;19.02;;;;;;;15.33;39.41;92166.59;5011120;28;20558;-90
2021/12/24 12:42:06;;;;;;;27.67;19.40;;;;;;;15.33;39.04;92167.31;5027243;28;20037;-90
2021/12/24 12:44:34;;;;;;;28.17;18.83;;;;;;;15.26;39.12;92178.81;5010386;28;20567;-90
2021/12/24 12:47:13;;;;;;;28.10;19.60;;;;;;;15.31;39.24;92172.53;5011177;28;20041;-91
2021/12/24 12:49:39;;;;;;;28.27;19.88;;;;;;;15.39;39.48;92164.47;5011022;28;20045;-90
2021/12/24 12:52:07;;;;;;;27.58;18.27;;;;;;;15.34;39.44;92176.22;5026777;28;20072;-90
2021/12/24 12:54:36;;;;;;;26.60;19.27;;;;;;;15.32;39.22;92170.56;5010869;28;20595;-90